Station: Armidale Airport  

  Atmospheric Gas Attenuation - ITU Rec 676-11   ----------------- dB/100km -----------------
Date Time Temp RH % AH g/m3 Dew Point Wind Direction Speed kph Gust kph Barometer mB Rainfall Since 9am 24GHz 47GHz 76GHz 122GHz 134GHz 241GHz
08/05 12:30 12.2 44 4.75 0.3 28 41 1019 0 11.5 20.6 26.2 67.9 52.4 177.0
08/05 12:20 12.6 46 5.09 1.3 22 26 1018.9 0 12.2 21.0 27.2 70.8 56.1 190.1
08/05 12:10 11.6 45 4.68 0.1 28 32 1019 0 11.3 20.7 26.1 67.8 52.0 175.4
08/05 12:00 12.2 46 4.96 0.9 28 39 1019.3 0 11.9 21.0 26.9 69.9 54.9 185.7
08/05 11:50 11.5 46 4.75 0.3 28 30 1019.3 0 11.5 20.8 26.4 68.5 52.9 178.6
08/05 11:40 11.2 47 4.76 0.3 30 35 1019.5 0 11.5 20.9 26.5 68.9 53.2 179.7
08/05 11:30 10.9 50 4.97 0.9 26 35 1019.9 0 12.0 21.3 27.4 71.2 56.0 189.2
08/05 11:20 10.2 49 4.66 0 28 32 1019.8 0 11.3 21.0 26.5 68.8 52.7 177.8
08/05 11:10 9.7 51 4.7 0.1 28 30 1019.9 0 11.4 21.2 26.8 69.7 53.6 180.6
08/05 11:00 10.1 51 4.82 0.4 22 33 1020.1 0 11.7 21.3 27.1 70.5 54.7 184.8
08/05 10:50 9.7 54 4.98 0.9 26 28 1019.9 0 12.0 21.6 27.9 72.4 56.9 192.5
08/05 10:40 8.8 53 4.61 -0.2 20 24 1020.1 0 11.3 21.3 26.8 69.6 53.1 178.8
08/05 10:30 9.2 54 4.82 0.4 20 28 1020.3 0 11.7 21.5 27.5 71.3 55.4 186.9
08/05 10:20 8.4 56 4.75 0.1 20 22 1020.2 0 11.6 21.6 27.5 71.3 55.1 185.7
08/05 10:10 7.9 57 4.68 -0.1 20 28 1020.3 0 11.5 21.6 27.4 71.1 54.6 183.8
08/05 10:00 7.6 59 4.76 0.1 22 30 1020.5 0 11.6 21.8 27.8 72.2 55.8 188.0
08/05 09:50 7 60 4.65 -0.2 20 26 1020.5 0 11.4 21.8 27.6 71.6 54.8 184.6
08/05 09:40 6.7 61 4.64 -0.3 24 28 1020.5 0 11.4 21.8 27.6 71.8 54.9 184.9
08/05 09:30 6.2 65 4.78 0.1 22 26 1020.7 0 11.7 22.2 28.3 73.7 57.0 192.3
08/05 09:20 5.7 65 4.63 -0.4 20 24 1020.5 0 11.4 22.0 27.9 72.6 55.5 186.8
08/05 09:10 5 67 4.56 -0.6 26 28 1020.4 0 11.3 22.1 27.9 72.5 55.1 185.3
08/05 09:00 4.5 70 4.6 -0.5 20 28 1020.6 0 11.4 22.3 28.2 73.4 56.0 188.3
08/05 08:50 4 69 4.39 -1.2 22 28 1020.3 0 11.0 22.1 27.6 71.6 53.6 179.9
08/05 08:40 3.4 71 4.34 -1.3 26 30 1020.3 0 10.9 22.1 27.6 71.7 53.4 179.0
08/05 08:30 3.3 74 4.49 -0.9 28 33 1020.6 0 11.2 22.4 28.2 73.3 55.4 186.1
08/05 08:20 3 75 4.46 -1 26 28 1020.3 0 11.1 22.4 28.2 73.3 55.2 185.4
08/05 08:10 2.8 76 4.46 -1 24 26 1020.1 0 11.1 22.5 28.3 73.4 55.3 185.8
08/05 08:00 2.5 76 4.37 -1.3 20 28 1020.3 0 11.0 22.4 28.0 72.8 54.4 182.4
08/05 07:50 2.3 78 4.43 -1.1 19 20 1020.1 0 11.1 22.5 28.3 73.6 55.3 185.6
08/05 07:40 1.9 78 4.31 -1.5 22 24 1019.8 0 10.9 22.4 28.0 72.7 54.0 181.0
08/05 07:30 1.4 79 4.22 -1.8 20 24 1020 0 10.7 22.4 27.8 72.2 53.2 178.0
08/05 07:20 1 82 4.26 -1.7 22 26 1019.8 0 10.8 22.6 28.1 73.0 53.9 180.7
08/05 07:10 0.4 83 4.14 -2.1 20 20 1019.7 0 10.5 22.5 27.8 72.2 52.8 176.5
08/05 07:00 -0.1 85 4.1 -2.3 19 22 1020 0 10.5 22.6 27.9 72.3 52.6 175.8
08/05 06:50 -0.6 85 3.96 -2.8 19 19 1019.6 0 10.2 22.5 27.5 71.2 51.0 170.3
08/05 06:40 -1.2 86 3.84 -3.2 9 11 1019.7 0 9.9 22.5 27.2 70.5 49.8 166.0
08/05 06:30 -1.2 85 3.8 -3.4 11 13 1019.7 0 9.9 22.4 27.0 70.1 49.3 164.1
08/05 06:20 -1.5 85 3.72 -3.7 9 11 1019.5 0 9.7 22.3 26.8 69.4 48.4 160.9
08/05 06:10 -1.2 85 3.8 -3.4 11 11 1019.5 0 9.9 22.4 27.0 70.0 49.3 164.1
08/05 06:00 -1.1 85 3.82 -3.3 19 22 1019.7 0 9.9 22.4 27.1 70.2 49.5 164.8
08/05 05:50 -0.9 85 3.88 -3.1 22 24 1019.3 0 10.0 22.4 27.2 70.6 50.2 167.1
08/05 05:40 -0.9 85 3.88 -3.1 22 24 1019.1 0 10.0 22.4 27.2 70.6 50.2 167.1
08/05 05:30 -0.7 84 3.88 -3.1 22 28 1019.1 0 10.0 22.4 27.1 70.4 50.0 166.7
08/05 05:20 -0.7 84 3.88 -3.1 20 24 1018.9 0 10.0 22.4 27.1 70.4 50.0 166.7
08/05 05:10 -0.9 84 3.83 -3.3 17 19 1018.9 0 9.9 22.3 27.0 70.0 49.5 164.7
08/05 05:00 -1 84 3.8 -3.4 17 20 1019.1 0 9.8 22.3 26.9 69.8 49.2 163.6
08/05 04:50 -0.9 83 3.78 -3.4 17 20 1018.9 0 9.8 22.3 26.8 69.5 48.8 162.4
08/05 04:40 -0.8 83 3.81 -3.3 17 20 1018.9 0 9.9 22.3 26.9 69.7 49.1 163.6
08/05 04:30 -0.7 82 3.79 -3.4 19 24 1019 0 9.8 22.2 26.8 69.4 48.8 162.5
08/05 04:20 -0.7 82 3.79 -3.4 20 24 1018.9 0 9.8 22.2 26.8 69.4 48.8 162.5
08/05 04:10 -0.8 82 3.76 -3.5 19 20 1018.7 0 9.8 22.2 26.7 69.2 48.5 161.3
08/05 04:00 -0.9 82 3.74 -3.6 17 22 1019 0 9.7 22.2 26.6 69.1 48.3 160.6
08/05 03:50 -0.7 81 3.74 -3.5 19 20 1018.8 0 9.7 22.1 26.6 68.9 48.2 160.1
08/05 03:40 -0.7 81 3.74 -3.5 19 20 1018.8 0 9.7 22.1 26.6 68.9 48.2 160.1
08/05 03:30 -1.1 80 3.6 -4.1 13 17 1019 0 9.4 22.0 26.2 67.8 46.6 154.5
08/05 03:20 -1.1 80 3.6 -4.1 13 13 1018.8 0 9.4 22.0 26.2 67.8 46.6 154.5
08/05 03:10 -0.7 78 3.61 -4 13 15 1018.7 0 9.4 21.9 26.1 67.5 46.4 154.1
08/05 03:00 -0.4 77 3.63 -3.9 19 22 1018.8 0 9.5 21.9 26.0 67.5 46.5 154.5
08/05 02:50 -0.8 79 3.63 -4 19 20 1018.6 0 9.5 22.0 26.2 67.8 46.8 155.2
08/05 02:40 -1.3 80 3.55 -4.3 15 17 1018.7 0 9.3 22.0 26.0 67.4 46.0 152.5
08/05 02:30 -1.3 79 3.5 -4.5 15 17 1018.9 0 9.2 21.9 25.8 66.9 45.4 150.2
08/05 02:20 -1.1 78 3.51 -4.4 15 17 1018.6 0 9.2 21.9 25.8 66.8 45.4 150.3
08/05 02:10 -0.8 76 3.49 -4.5 15 17 1018.8 0 9.2 21.8 25.6 66.3 44.9 148.8
08/05 02:00 -0.3 74 3.52 -4.4 17 20 1018.9 0 9.2 21.7 25.6 66.2 45.1 149.3
08/05 01:50 -0.8 75 3.44 -4.7 13 15 1018.8 0 9.1 21.7 25.4 65.8 44.3 146.5
08/05 01:40 -0.4 72 3.4 -4.8 13 13 1018.9 0 9.0 21.5 25.1 65.1 43.6 144.0
08/05 01:30 0 71 3.44 -4.6 15 17 1019.1 0 9.0 21.5 25.2 65.2 43.9 145.1
08/05 01:20 -0.3 72 3.42 -4.7 17 17 1018.8 0 9.0 21.5 25.2 65.2 43.8 144.7
08/05 01:10 -0.3 69 3.28 -5.3 15 15 1018.8 0 8.7 21.3 24.6 63.7 42.0 138.4
08/05 01:00 -0.2 69 3.3 -5.2 11 13 1019.2 0 8.7 21.3 24.7 63.9 42.2 139.1
08/05 00:50 0.2 68 3.35 -5 13 13 1018.9 0 8.8 21.3 24.8 64.1 42.6 140.7
08/05 00:40 0.8 67 3.43 -4.6 17 19 1018.8 0 9.0 21.3 24.9 64.4 43.3 143.2
08/05 00:20 0.2 67 3.3 -5.2 19 19 1018.8 0 8.7 21.2 24.6 63.5 41.9 138.4
08/05 00:10 1 64 3.33 -5 15 19 1018.9 0 8.8 21.1 24.4 63.2 41.9 138.4
08/05 00:00 1.4 64 3.42 -4.6 20 26 1019 0 9.0 21.1 24.7 63.8 42.8 141.7
07/05 23:50 1.5 63 3.39 -4.8 24 28 1018.8 0 8.9 21.1 24.5 63.4 42.4 140.1
07/05 23:40 1.1 65 3.4 -4.7 19 20 1018.9 0 8.9 21.2 24.7 63.8 42.7 141.3
07/05 23:30 0.4 67 3.34 -5 20 22 1019.2 0 8.8 21.3 24.7 63.8 42.4 139.9
07/05 23:20 1 63 3.27 -5.2 20 22 1019.1 0 8.6 21.0 24.2 62.6 41.2 135.7
07/05 23:10 1.6 62 3.36 -4.9 17 20 1019.1 0 8.8 21.0 24.4 63.0 42.0 138.7
07/05 23:00 1.3 65 3.45 -4.5 20 24 1019.5 0 9.0 21.2 24.8 64.2 43.3 143.3
07/05 22:50 1.3 62 3.29 -5.2 19 20 1019.4 0 8.7 21.0 24.2 62.6 41.3 136.1
07/05 22:40 1.1 61 3.19 -5.6 13 15 1019.4 0 8.5 20.9 23.9 61.7 40.1 132.1
07/05 22:30 1.3 61 3.24 -5.4 17 22 1019.3 0 8.6 20.9 24.0 62.1 40.6 133.9
07/05 22:20 1.5 60 3.23 -5.4 15 17 1019.3 0 8.5 20.8 23.9 61.8 40.4 133.2
07/05 22:10 1.7 58 3.16 -5.7 11 11 1019.5 0 8.4 20.7 23.6 61.0 39.4 129.8
07/05 22:00 2 56 3.12 -5.8 9 17 1019.7 0 8.3 20.6 23.4 60.4 38.8 127.6
07/05 21:50 2.2 55 3.1 -5.9 13 15 1019.4 0 8.2 20.5 23.3 60.0 38.4 126.4
07/05 21:40 2.9 52 3.07 -6 20 24 1019.4 0 8.2 20.3 22.9 59.2 37.7 124.0
07/05 21:30 3.1 51 3.06 -6 22 26 1019.7 0 8.1 20.2 22.9 58.9 37.5 123.3
07/05 21:20 3.1 52 3.12 -5.8 19 22 1019.7 0 8.3 20.3 23.1 59.5 38.3 125.9
07/05 21:10 3.5 50 3.08 -5.9 19 24 1019.5 0 8.2 20.2 22.8 58.8 37.6 123.5
07/05 21:00 3.5 52 3.2 -5.4 24 32 1019.1 0 8.4 20.3 23.2 60.0 39.0 128.6
07/05 20:50 3.6 51 3.16 -5.6 22 26 1019.3 0 8.3 20.3 23.1 59.5 38.5 126.7
07/05 20:40 3.5 52 3.2 -5.4 24 24 1019.1 0 8.4 20.3 23.2 60.0 39.0 128.6
07/05 20:30 3.3 55 3.34 -4.9 20 24 1019.3 0 8.7 20.6 23.8 61.5 40.8 134.9
07/05 20:20 3.5 53 3.26 -5.2 20 22 1019.3 0 8.6 20.4 23.5 60.6 39.8 131.2
07/05 20:10 3 56 3.33 -4.9 17 20 1019 0 8.7 20.6 23.9 61.6 40.9 135.0
07/05 20:00 3.4 55 3.36 -4.8 15 17 1019.5 0 8.8 20.6 23.9 61.7 41.0 135.7
07/05 19:50 3.6 55 3.41 -4.6 15 15 1019.1 0 8.9 20.6 24.0 62.0 41.5 137.4

Last Refresh: 08-May-2026 12:08:02

Bureau of Meteorology